Dunswell, United Kingdom
Current Conditions -  °F | °C
As of 1:50 PM on Saturday 22 Nov 2014 (Local Time) from EGXV Reporting Station
Rain Showers Rain Showers  
Wind Chill: 54°   Ceiling: 1100
Heat Index: 54°   Visibility: 2.7mi
Dew Point: 54°   Wind: 6mph
Humidity: 100%   Direction: 200°SSW
Pressure: 29.83"   Gusts: NA
Location:  53.8°N, 0.37°W
Report Text: EGXV 221350Z AUTO 20005KT 4400 -SHRA FEW005/// BKN011/// 12/12 Q1010
Loading
Personal Weather Stations






























Interactive Weather Map New forecast layout! Learn more

10-Day Weather Forecast

Advertisements
Track Severe Weather on mobile